sensor_id;sensor_type;location;lat;lon;timestamp;P1;durP1;ratioP1;P2;durP2;ratioP2
39104;SDS011;46464;51.154;13.812;2023-08-12T00:02:13;4.57;;;3.25;;
39104;SDS011;46464;51.154;13.812;2023-08-12T00:04:40;3.88;;;2.92;;
39104;SDS011;46464;51.154;13.812;2023-08-12T00:07:06;5.60;;;3.50;;
39104;SDS011;46464;51.154;13.812;2023-08-12T00:09:33;4.93;;;3.17;;
39104;SDS011;46464;51.154;13.812;2023-08-12T00:11:59;5.75;;;3.33;;
39104;SDS011;46464;51.154;13.812;2023-08-12T00:14:26;4.53;;;3.28;;
39104;SDS011;46464;51.154;13.812;2023-08-12T00:16:52;4.30;;;3.35;;
39104;SDS011;46464;51.154;13.812;2023-08-12T00:19:19;3.88;;;3.20;;
39104;SDS011;46464;51.154;13.812;2023-08-12T00:21:46;6.15;;;4.10;;
39104;SDS011;46464;51.154;13.812;2023-08-12T00:24:12;5.78;;;3.28;;
39104;SDS011;46464;51.154;13.812;2023-08-12T00:26:39;7.40;;;3.78;;
39104;SDS011;46464;51.154;13.812;2023-08-12T00:29:05;8.02;;;3.20;;
39104;SDS011;46464;51.154;13.812;2023-08-12T00:31:32;3.85;;;3.28;;
39104;SDS011;46464;51.154;13.812;2023-08-12T00:33:58;4.38;;;3.10;;
39104;SDS011;46464;51.154;13.812;2023-08-12T00:36:25;5.53;;;3.17;;
39104;SDS011;46464;51.154;13.812;2023-08-12T00:38:52;6.18;;;3.38;;
39104;SDS011;46464;51.154;13.812;2023-08-12T00:41:19;4.07;;;3.03;;
39104;SDS011;46464;51.154;13.812;2023-08-12T00:43:45;5.60;;;3.13;;
39104;SDS011;46464;51.154;13.812;2023-08-12T00:46:12;5.05;;;3.28;;
39104;SDS011;46464;51.154;13.812;2023-08-12T00:48:39;4.50;;;3.00;;
39104;SDS011;46464;51.154;13.812;2023-08-12T00:51:06;4.63;;;3.10;;
39104;SDS011;46464;51.154;13.812;2023-08-12T00:53:33;5.00;;;3.15;;
39104;SDS011;46464;51.154;13.812;2023-08-12T00:56:19;4.45;;;3.20;;
39104;SDS011;46464;51.154;13.812;2023-08-12T00:58:45;4.70;;;3.17;;
39104;SDS011;46464;51.154;13.812;2023-08-12T01:01:12;4.90;;;3.60;;
39104;SDS011;46464;51.154;13.812;2023-08-12T01:03:39;6.72;;;3.38;;
39104;SDS011;46464;51.154;13.812;2023-08-12T01:06:07;4.03;;;2.95;;
39104;SDS011;46464;51.154;13.812;2023-08-12T01:08:33;5.13;;;3.40;;
39104;SDS011;46464;51.154;13.812;2023-08-12T01:13:57;5.85;;;3.28;;
39104;SDS011;46464;51.154;13.812;2023-08-12T01:16:29;4.28;;;2.92;;
39104;SDS011;46464;51.154;13.812;2023-08-12T01:18:59;5.40;;;3.70;;
39104;SDS011;46464;51.154;13.812;2023-08-12T01:21:28;3.67;;;3.08;;
39104;SDS011;46464;51.154;13.812;2023-08-12T01:23:56;4.63;;;3.20;;
39104;SDS011;46464;51.154;13.812;2023-08-12T01:26:23;4.93;;;3.38;;
39104;SDS011;46464;51.154;13.812;2023-08-12T01:28:50;4.35;;;3.28;;
39104;SDS011;46464;51.154;13.812;2023-08-12T01:31:23;5.05;;;2.95;;
39104;SDS011;46464;51.154;13.812;2023-08-12T01:34:06;4.70;;;2.90;;
39104;SDS011;46464;51.154;13.812;2023-08-12T01:36:43;4.15;;;2.88;;
39104;SDS011;46464;51.154;13.812;2023-08-12T01:39:18;5.03;;;3.13;;
39104;SDS011;46464;51.154;13.812;2023-08-12T01:41:45;5.20;;;3.38;;
39104;SDS011;46464;51.154;13.812;2023-08-12T01:44:12;4.78;;;3.20;;
39104;SDS011;46464;51.154;13.812;2023-08-12T01:46:39;6.38;;;4.07;;
39104;SDS011;46464;51.154;13.812;2023-08-12T01:49:05;5.05;;;3.97;;
39104;SDS011;46464;51.154;13.812;2023-08-12T01:51:32;4.20;;;3.28;;
39104;SDS011;46464;51.154;13.812;2023-08-12T01:53:58;4.65;;;3.38;;
39104;SDS011;46464;51.154;13.812;2023-08-12T01:56:25;7.05;;;3.50;;
39104;SDS011;46464;51.154;13.812;2023-08-12T01:58:51;6.03;;;3.88;;
39104;SDS011;46464;51.154;13.812;2023-08-12T02:01:18;5.15;;;3.60;;
39104;SDS011;46464;51.154;13.812;2023-08-12T02:03:44;4.43;;;3.53;;
39104;SDS011;46464;51.154;13.812;2023-08-12T02:06:11;6.25;;;4.07;;
39104;SDS011;46464;51.154;13.812;2023-08-12T02:08:38;6.43;;;3.72;;
39104;SDS011;46464;51.154;13.812;2023-08-12T02:11:04;5.57;;;3.13;;
39104;SDS011;46464;51.154;13.812;2023-08-12T02:13:31;7.05;;;3.47;;
39104;SDS011;46464;51.154;13.812;2023-08-12T02:15:57;6.07;;;3.30;;
39104;SDS011;46464;51.154;13.812;2023-08-12T02:18:24;5.07;;;3.33;;
39104;SDS011;46464;51.154;13.812;2023-08-12T02:20:50;5.60;;;3.30;;
39104;SDS011;46464;51.154;13.812;2023-08-12T02:23:17;6.70;;;3.17;;
39104;SDS011;46464;51.154;13.812;2023-08-12T02:25:43;10.82;;;3.40;;
39104;SDS011;46464;51.154;13.812;2023-08-12T02:28:11;5.80;;;3.25;;
39104;SDS011;46464;51.154;13.812;2023-08-12T02:30:37;3.30;;;2.75;;
39104;SDS011;46464;51.154;13.812;2023-08-12T02:33:04;5.18;;;3.30;;
39104;SDS011;46464;51.154;13.812;2023-08-12T02:35:30;5.90;;;3.53;;
39104;SDS011;46464;51.154;13.812;2023-08-12T02:37:58;5.82;;;2.97;;
39104;SDS011;46464;51.154;13.812;2023-08-12T02:40:25;4.65;;;2.85;;
39104;SDS011;46464;51.154;13.812;2023-08-12T02:42:51;8.00;;;3.55;;
39104;SDS011;46464;51.154;13.812;2023-08-12T02:45:18;5.28;;;3.30;;
39104;SDS011;46464;51.154;13.812;2023-08-12T02:47:44;6.07;;;3.35;;
39104;SDS011;46464;51.154;13.812;2023-08-12T02:50:11;5.13;;;3.20;;
39104;SDS011;46464;51.154;13.812;2023-08-12T02:55:32;5.70;;;3.33;;
39104;SDS011;46464;51.154;13.812;2023-08-12T02:58:02;5.47;;;3.30;;
39104;SDS011;46464;51.154;13.812;2023-08-12T03:00:32;4.30;;;2.95;;
39104;SDS011;46464;51.154;13.812;2023-08-12T03:03:02;5.47;;;3.28;;
39104;SDS011;46464;51.154;13.812;2023-08-12T03:05:32;8.68;;;4.20;;
39104;SDS011;46464;51.154;13.812;2023-08-12T03:08:00;4.32;;;3.20;;
39104;SDS011;46464;51.154;13.812;2023-08-12T03:10:33;5.88;;;3.30;;
39104;SDS011;46464;51.154;13.812;2023-08-12T03:13:11;5.13;;;3.10;;
39104;SDS011;46464;51.154;13.812;2023-08-12T03:15:42;5.07;;;3.00;;
39104;SDS011;46464;51.154;13.812;2023-08-12T03:18:16;6.25;;;2.90;;
39104;SDS011;46464;51.154;13.812;2023-08-12T03:21:11;5.53;;;2.90;;
39104;SDS011;46464;51.154;13.812;2023-08-12T03:23:43;5.32;;;2.97;;
39104;SDS011;46464;51.154;13.812;2023-08-12T03:26:19;4.13;;;2.83;;
39104;SDS011;46464;51.154;13.812;2023-08-12T03:28:53;4.90;;;3.22;;
39104;SDS011;46464;51.154;13.812;2023-08-12T03:31:26;3.78;;;2.83;;
39104;SDS011;46464;51.154;13.812;2023-08-12T03:33:58;4.57;;;3.00;;
39104;SDS011;46464;51.154;13.812;2023-08-12T03:36:26;4.13;;;3.03;;
39104;SDS011;46464;51.154;13.812;2023-08-12T03:38:58;4.32;;;3.00;;
39104;SDS011;46464;51.154;13.812;2023-08-12T03:41:51;6.25;;;3.20;;
39104;SDS011;46464;51.154;13.812;2023-08-12T03:44:23;3.78;;;3.00;;
39104;SDS011;46464;51.154;13.812;2023-08-12T03:46:52;5.32;;;3.55;;
39104;SDS011;46464;51.154;13.812;2023-08-12T03:49:31;3.85;;;3.00;;
39104;SDS011;46464;51.154;13.812;2023-08-12T03:52:02;7.20;;;3.13;;
39104;SDS011;46464;51.154;13.812;2023-08-12T03:54:37;4.47;;;3.38;;
39104;SDS011;46464;51.154;13.812;2023-08-12T03:57:08;5.45;;;3.35;;
39104;SDS011;46464;51.154;13.812;2023-08-12T03:59:39;5.70;;;3.20;;
39104;SDS011;46464;51.154;13.812;2023-08-12T04:02:07;7.80;;;4.10;;
39104;SDS011;46464;51.154;13.812;2023-08-12T04:04:35;5.72;;;3.78;;
39104;SDS011;46464;51.154;13.812;2023-08-12T04:07:08;4.90;;;3.40;;
39104;SDS011;46464;51.154;13.812;2023-08-12T04:09:39;4.45;;;3.50;;
39104;SDS011;46464;51.154;13.812;2023-08-12T04:12:08;8.27;;;3.55;;
39104;SDS011;46464;51.154;13.812;2023-08-12T04:14:37;5.18;;;3.28;;
39104;SDS011;46464;51.154;13.812;2023-08-12T04:17:05;5.05;;;3.40;;
39104;SDS011;46464;51.154;13.812;2023-08-12T04:19:35;7.90;;;3.47;;
39104;SDS011;46464;51.154;13.812;2023-08-12T04:22:04;7.72;;;3.30;;
39104;SDS011;46464;51.154;13.812;2023-08-12T04:24:35;3.88;;;2.88;;
39104;SDS011;46464;51.154;13.812;2023-08-12T04:27:06;4.22;;;2.90;;
39104;SDS011;46464;51.154;13.812;2023-08-12T04:29:36;3.88;;;3.22;;
39104;SDS011;46464;51.154;13.812;2023-08-12T04:32:06;7.05;;;3.10;;
39104;SDS011;46464;51.154;13.812;2023-08-12T04:34:35;5.88;;;3.42;;
39104;SDS011;46464;51.154;13.812;2023-08-12T04:37:05;5.13;;;3.08;;
39104;SDS011;46464;51.154;13.812;2023-08-12T04:39:35;5.93;;;3.30;;
39104;SDS011;46464;51.154;13.812;2023-08-12T04:42:08;5.18;;;3.65;;
39104;SDS011;46464;51.154;13.812;2023-08-12T04:44:38;8.00;;;3.28;;
39104;SDS011;46464;51.154;13.812;2023-08-12T04:47:11;6.05;;;3.70;;
39104;SDS011;46464;51.154;13.812;2023-08-12T04:49:44;4.30;;;3.17;;
39104;SDS011;46464;51.154;13.812;2023-08-12T04:52:14;7.75;;;3.60;;
39104;SDS011;46464;51.154;13.812;2023-08-12T04:54:44;4.25;;;2.85;;
39104;SDS011;46464;51.154;13.812;2023-08-12T04:57:16;9.68;;;3.60;;
39104;SDS011;46464;51.154;13.812;2023-08-12T04:59:46;6.00;;;3.20;;
39104;SDS011;46464;51.154;13.812;2023-08-12T05:02:17;4.80;;;3.22;;
39104;SDS011;46464;51.154;13.812;2023-08-12T05:04:48;6.30;;;3.42;;
39104;SDS011;46464;51.154;13.812;2023-08-12T05:07:19;4.47;;;3.05;;
39104;SDS011;46464;51.154;13.812;2023-08-12T05:09:52;4.75;;;2.95;;
39104;SDS011;46464;51.154;13.812;2023-08-12T05:12:22;4.78;;;3.00;;
39104;SDS011;46464;51.154;13.812;2023-08-12T05:14:54;4.20;;;3.08;;
39104;SDS011;46464;51.154;13.812;2023-08-12T05:17:24;4.50;;;3.10;;
39104;SDS011;46464;51.154;13.812;2023-08-12T05:19:55;5.75;;;3.03;;
39104;SDS011;46464;51.154;13.812;2023-08-12T05:22:30;4.05;;;2.90;;
39104;SDS011;46464;51.154;13.812;2023-08-12T05:25:03;4.53;;;3.50;;
39104;SDS011;46464;51.154;13.812;2023-08-12T05:27:32;5.15;;;3.10;;
39104;SDS011;46464;51.154;13.812;2023-08-12T05:30:02;4.70;;;2.85;;
39104;SDS011;46464;51.154;13.812;2023-08-12T05:32:35;6.57;;;2.97;;
39104;SDS011;46464;51.154;13.812;2023-08-12T05:35:09;5.00;;;3.38;;
39104;SDS011;46464;51.154;13.812;2023-08-12T05:37:39;5.72;;;3.28;;
39104;SDS011;46464;51.154;13.812;2023-08-12T05:40:16;6.53;;;2.92;;
39104;SDS011;46464;51.154;13.812;2023-08-12T05:42:47;4.45;;;3.25;;
39104;SDS011;46464;51.154;13.812;2023-08-12T05:45:18;6.45;;;3.60;;
39104;SDS011;46464;51.154;13.812;2023-08-12T05:47:49;5.82;;;3.53;;
39104;SDS011;46464;51.154;13.812;2023-08-12T05:50:22;6.78;;;3.58;;
39104;SDS011;46464;51.154;13.812;2023-08-12T05:52:51;5.32;;;2.95;;
39104;SDS011;46464;51.154;13.812;2023-08-12T05:55:21;7.28;;;3.30;;
39104;SDS011;46464;51.154;13.812;2023-08-12T05:57:54;4.97;;;2.92;;
39104;SDS011;46464;51.154;13.812;2023-08-12T06:00:20;4.20;;;2.88;;
39104;SDS011;46464;51.154;13.812;2023-08-12T06:02:49;5.47;;;3.40;;
39104;SDS011;46464;51.154;13.812;2023-08-12T06:05:18;6.25;;;3.28;;
39104;SDS011;46464;51.154;13.812;2023-08-12T06:07:46;3.83;;;2.80;;
39104;SDS011;46464;51.154;13.812;2023-08-12T06:10:15;4.85;;;3.00;;
39104;SDS011;46464;51.154;13.812;2023-08-12T06:12:45;3.85;;;2.80;;
39104;SDS011;46464;51.154;13.812;2023-08-12T06:15:12;4.85;;;3.10;;
39104;SDS011;46464;51.154;13.812;2023-08-12T06:17:42;6.10;;;2.88;;
39104;SDS011;46464;51.154;13.812;2023-08-12T06:20:15;6.07;;;3.03;;
39104;SDS011;46464;51.154;13.812;2023-08-12T06:22:44;5.05;;;2.58;;
39104;SDS011;46464;51.154;13.812;2023-08-12T06:25:12;7.65;;;3.10;;
39104;SDS011;46464;51.154;13.812;2023-08-12T06:27:40;4.78;;;2.78;;
39104;SDS011;46464;51.154;13.812;2023-08-12T06:30:07;5.72;;;3.10;;
39104;SDS011;46464;51.154;13.812;2023-08-12T06:32:35;5.68;;;2.88;;
39104;SDS011;46464;51.154;13.812;2023-08-12T06:35:06;6.72;;;3.22;;
39104;SDS011;46464;51.154;13.812;2023-08-12T06:37:34;3.75;;;2.72;;
39104;SDS011;46464;51.154;13.812;2023-08-12T06:40:05;5.78;;;2.88;;
39104;SDS011;46464;51.154;13.812;2023-08-12T06:42:33;4.53;;;3.05;;
39104;SDS011;46464;51.154;13.812;2023-08-12T06:45:00;4.90;;;3.00;;
39104;SDS011;46464;51.154;13.812;2023-08-12T06:47:26;6.63;;;3.15;;
39104;SDS011;46464;51.154;13.812;2023-08-12T06:49:56;4.85;;;3.00;;
39104;SDS011;46464;51.154;13.812;2023-08-12T06:52:23;6.50;;;2.80;;
39104;SDS011;46464;51.154;13.812;2023-08-12T06:57:16;5.07;;;3.03;;
39104;SDS011;46464;51.154;13.812;2023-08-12T06:59:43;5.65;;;2.97;;
39104;SDS011;46464;51.154;13.812;2023-08-12T07:02:11;6.10;;;2.70;;
39104;SDS011;46464;51.154;13.812;2023-08-12T07:04:38;5.28;;;3.00;;
39104;SDS011;46464;51.154;13.812;2023-08-12T07:07:05;4.22;;;2.78;;
39104;SDS011;46464;51.154;13.812;2023-08-12T07:09:39;8.35;;;2.90;;
39104;SDS011;46464;51.154;13.812;2023-08-12T07:12:12;9.77;;;3.80;;
39104;SDS011;46464;51.154;13.812;2023-08-12T07:14:40;5.45;;;2.78;;
39104;SDS011;46464;51.154;13.812;2023-08-12T07:17:16;4.20;;;2.73;;
39104;SDS011;46464;51.154;13.812;2023-08-12T07:19:51;5.72;;;2.47;;
39104;SDS011;46464;51.154;13.812;2023-08-12T07:22:18;5.80;;;3.08;;
39104;SDS011;46464;51.154;13.812;2023-08-12T07:24:46;6.38;;;2.80;;
39104;SDS011;46464;51.154;13.812;2023-08-12T07:27:14;3.45;;;2.50;;
39104;SDS011;46464;51.154;13.812;2023-08-12T07:29:41;3.92;;;2.78;;
39104;SDS011;46464;51.154;13.812;2023-08-12T07:32:08;3.90;;;3.00;;
39104;SDS011;46464;51.154;13.812;2023-08-12T07:34:36;4.65;;;2.42;;
39104;SDS011;46464;51.154;13.812;2023-08-12T07:37:11;5.30;;;2.70;;
39104;SDS011;46464;51.154;13.812;2023-08-12T07:39:56;4.10;;;2.90;;
39104;SDS011;46464;51.154;13.812;2023-08-12T07:42:28;5.80;;;2.65;;
39104;SDS011;46464;51.154;13.812;2023-08-12T07:45:16;9.05;;;2.78;;
39104;SDS011;46464;51.154;13.812;2023-08-12T07:47:51;3.60;;;2.53;;
39104;SDS011;46464;51.154;13.812;2023-08-12T07:50:20;6.72;;;3.75;;
39104;SDS011;46464;51.154;13.812;2023-08-12T07:52:48;5.00;;;2.70;;
39104;SDS011;46464;51.154;13.812;2023-08-12T07:55:15;5.85;;;2.85;;
39104;SDS011;46464;51.154;13.812;2023-08-12T07:57:44;4.30;;;3.15;;
39104;SDS011;46464;51.154;13.812;2023-08-12T08:00:12;6.47;;;3.03;;
39104;SDS011;46464;51.154;13.812;2023-08-12T08:02:39;4.38;;;2.63;;
39104;SDS011;46464;51.154;13.812;2023-08-12T08:05:13;4.63;;;2.80;;
39104;SDS011;46464;51.154;13.812;2023-08-12T08:07:40;5.50;;;2.55;;
39104;SDS011;46464;51.154;13.812;2023-08-12T08:12:33;3.72;;;2.70;;
39104;SDS011;46464;51.154;13.812;2023-08-12T08:15:00;4.57;;;2.63;;
39104;SDS011;46464;51.154;13.812;2023-08-12T08:19:52;4.30;;;2.83;;
39104;SDS011;46464;51.154;13.812;2023-08-12T08:22:19;4.78;;;2.90;;
39104;SDS011;46464;51.154;13.812;2023-08-12T08:27:21;6.50;;;2.72;;
39104;SDS011;46464;51.154;13.812;2023-08-12T08:29:51;7.35;;;2.60;;
39104;SDS011;46464;51.154;13.812;2023-08-12T08:32:23;4.55;;;2.60;;
39104;SDS011;46464;51.154;13.812;2023-08-12T08:34:50;4.40;;;2.80;;
39104;SDS011;46464;51.154;13.812;2023-08-12T08:37:16;3.33;;;2.13;;
39104;SDS011;46464;51.154;13.812;2023-08-12T08:39:46;5.55;;;2.50;;
39104;SDS011;46464;51.154;13.812;2023-08-12T08:42:15;6.25;;;2.50;;
39104;SDS011;46464;51.154;13.812;2023-08-12T08:44:47;4.68;;;2.33;;
39104;SDS011;46464;51.154;13.812;2023-08-12T08:47:16;4.13;;;2.33;;
39104;SDS011;46464;51.154;13.812;2023-08-12T08:50:07;4.15;;;2.28;;
39104;SDS011;46464;51.154;13.812;2023-08-12T08:52:38;4.18;;;2.50;;
39104;SDS011;46464;51.154;13.812;2023-08-12T08:55:11;3.17;;;2.17;;
39104;SDS011;46464;51.154;13.812;2023-08-12T08:57:41;5.93;;;2.50;;
39104;SDS011;46464;51.154;13.812;2023-08-12T09:00:15;3.67;;;2.30;;
39104;SDS011;46464;51.154;13.812;2023-08-12T09:02:45;5.70;;;2.78;;
39104;SDS011;46464;51.154;13.812;2023-08-12T09:05:44;5.90;;;2.50;;
39104;SDS011;46464;51.154;13.812;2023-08-12T09:08:15;3.88;;;2.53;;
39104;SDS011;46464;51.154;13.812;2023-08-12T09:10:48;4.85;;;2.50;;
39104;SDS011;46464;51.154;13.812;2023-08-12T09:13:18;4.35;;;2.40;;
39104;SDS011;46464;51.154;13.812;2023-08-12T09:15:50;3.47;;;2.47;;
39104;SDS011;46464;51.154;13.812;2023-08-12T09:18:17;4.68;;;2.30;;
39104;SDS011;46464;51.154;13.812;2023-08-12T09:20:45;3.97;;;2.25;;
39104;SDS011;46464;51.154;13.812;2023-08-12T09:23:19;4.25;;;2.10;;
39104;SDS011;46464;51.154;13.812;2023-08-12T09:25:52;5.15;;;2.40;;
39104;SDS011;46464;51.154;13.812;2023-08-12T09:28:30;3.50;;;2.17;;
39104;SDS011;46464;51.154;13.812;2023-08-12T09:30:58;3.03;;;1.70;;
39104;SDS011;46464;51.154;13.812;2023-08-12T09:33:26;5.50;;;1.98;;
39104;SDS011;46464;51.154;13.812;2023-08-12T09:35:53;3.47;;;1.75;;
39104;SDS011;46464;51.154;13.812;2023-08-12T09:38:27;2.97;;;1.52;;
39104;SDS011;46464;51.154;13.812;2023-08-12T09:40:59;4.35;;;1.90;;
39104;SDS011;46464;51.154;13.812;2023-08-12T09:43:44;3.55;;;1.83;;
39104;SDS011;46464;51.154;13.812;2023-08-12T09:46:14;3.80;;;2.10;;
39104;SDS011;46464;51.154;13.812;2023-08-12T09:48:42;2.58;;;1.67;;
39104;SDS011;46464;51.154;13.812;2023-08-12T09:51:21;1.98;;;1.50;;
39104;SDS011;46464;51.154;13.812;2023-08-12T09:56:48;3.40;;;1.85;;
39104;SDS011;46464;51.154;13.812;2023-08-12T09:59:25;2.45;;;1.80;;
39104;SDS011;46464;51.154;13.812;2023-08-12T10:02:00;3.67;;;1.92;;
39104;SDS011;46464;51.154;13.812;2023-08-12T10:08:01;2.53;;;1.90;;
39104;SDS011;46464;51.154;13.812;2023-08-12T10:10:34;2.80;;;1.80;;
39104;SDS011;46464;51.154;13.812;2023-08-12T10:13:02;3.72;;;1.77;;
39104;SDS011;46464;51.154;13.812;2023-08-12T10:15:34;4.00;;;2.05;;
39104;SDS011;46464;51.154;13.812;2023-08-12T10:18:12;2.78;;;1.58;;
39104;SDS011;46464;51.154;13.812;2023-08-12T10:21:04;4.53;;;1.95;;
39104;SDS011;46464;51.154;13.812;2023-08-12T10:23:44;3.00;;;1.70;;
39104;SDS011;46464;51.154;13.812;2023-08-12T10:26:26;5.50;;;1.60;;
39104;SDS011;46464;51.154;13.812;2023-08-12T10:28:55;4.28;;;2.15;;
39104;SDS011;46464;51.154;13.812;2023-08-12T10:31:24;2.50;;;1.42;;
39104;SDS011;46464;51.154;13.812;2023-08-12T10:33:57;3.58;;;1.50;;
39104;SDS011;46464;51.154;13.812;2023-08-12T10:36:26;8.57;;;1.88;;
39104;SDS011;46464;51.154;13.812;2023-08-12T10:41:54;3.50;;;1.65;;
39104;SDS011;46464;51.154;13.812;2023-08-12T10:44:57;2.40;;;1.30;;
39104;SDS011;46464;51.154;13.812;2023-08-12T10:47:26;2.72;;;1.35;;
39104;SDS011;46464;51.154;13.812;2023-08-12T10:49:57;3.55;;;1.80;;
39104;SDS011;46464;51.154;13.812;2023-08-12T10:52:33;3.80;;;1.63;;
39104;SDS011;46464;51.154;13.812;2023-08-12T10:57:53;2.28;;;1.30;;
39104;SDS011;46464;51.154;13.812;2023-08-12T11:00:26;3.22;;;1.40;;
39104;SDS011;46464;51.154;13.812;2023-08-12T11:03:04;2.47;;;1.20;;
39104;SDS011;46464;51.154;13.812;2023-08-12T11:05:38;3.45;;;1.48;;
39104;SDS011;46464;51.154;13.812;2023-08-12T11:08:07;2.17;;;1.30;;
39104;SDS011;46464;51.154;13.812;2023-08-12T11:14:26;4.40;;;1.60;;
39104;SDS011;46464;51.154;13.812;2023-08-12T11:16:56;4.30;;;1.35;;
39104;SDS011;46464;51.154;13.812;2023-08-12T11:19:25;3.70;;;1.50;;
39104;SDS011;46464;51.154;13.812;2023-08-12T11:22:04;2.43;;;1.53;;
39104;SDS011;46464;51.154;13.812;2023-08-12T11:24:41;2.10;;;1.27;;
39104;SDS011;46464;51.154;13.812;2023-08-12T11:27:12;4.15;;;1.60;;
39104;SDS011;46464;51.154;13.812;2023-08-12T11:29:51;4.88;;;1.50;;
39104;SDS011;46464;51.154;13.812;2023-08-12T11:32:23;2.78;;;1.70;;
39104;SDS011;46464;51.154;13.812;2023-08-12T11:34:53;7.68;;;1.90;;
39104;SDS011;46464;51.154;13.812;2023-08-12T11:37:28;3.22;;;2.05;;
39104;SDS011;46464;51.154;13.812;2023-08-12T11:40:01;3.67;;;1.80;;
39104;SDS011;46464;51.154;13.812;2023-08-12T11:45:51;2.85;;;1.80;;
39104;SDS011;46464;51.154;13.812;2023-08-12T11:48:20;2.50;;;1.58;;
39104;SDS011;46464;51.154;13.812;2023-08-12T11:50:54;2.33;;;1.77;;
39104;SDS011;46464;51.154;13.812;2023-08-12T11:53:25;4.45;;;1.80;;
39104;SDS011;46464;51.154;13.812;2023-08-12T11:55:55;5.20;;;2.63;;
39104;SDS011;46464;51.154;13.812;2023-08-12T11:58:22;3.33;;;1.70;;
39104;SDS011;46464;51.154;13.812;2023-08-12T12:01:24;3.30;;;2.08;;
39104;SDS011;46464;51.154;13.812;2023-08-12T12:04:02;3.85;;;1.85;;
39104;SDS011;46464;51.154;13.812;2023-08-12T12:06:35;3.40;;;1.55;;
39104;SDS011;46464;51.154;13.812;2023-08-12T12:09:06;5.70;;;1.88;;
39104;SDS011;46464;51.154;13.812;2023-08-12T12:11:38;3.42;;;1.80;;
39104;SDS011;46464;51.154;13.812;2023-08-12T12:14:10;3.42;;;2.30;;
39104;SDS011;46464;51.154;13.812;2023-08-12T12:16:48;4.35;;;1.98;;
39104;SDS011;46464;51.154;13.812;2023-08-12T12:19:28;3.60;;;1.75;;
39104;SDS011;46464;51.154;13.812;2023-08-12T12:25:38;3.75;;;2.17;;
39104;SDS011;46464;51.154;13.812;2023-08-12T12:28:07;3.60;;;1.90;;
39104;SDS011;46464;51.154;13.812;2023-08-12T12:30:34;2.58;;;1.80;;
39104;SDS011;46464;51.154;13.812;2023-08-12T12:33:06;4.63;;;1.98;;
39104;SDS011;46464;51.154;13.812;2023-08-12T12:35:47;4.00;;;2.30;;
39104;SDS011;46464;51.154;13.812;2023-08-12T12:38:26;3.83;;;2.30;;
39104;SDS011;46464;51.154;13.812;2023-08-12T12:41:01;3.03;;;2.03;;
39104;SDS011;46464;51.154;13.812;2023-08-12T12:43:30;4.18;;;2.28;;
39104;SDS011;46464;51.154;13.812;2023-08-12T12:46:05;3.00;;;2.03;;
39104;SDS011;46464;51.154;13.812;2023-08-12T12:48:42;2.97;;;2.03;;
39104;SDS011;46464;51.154;13.812;2023-08-12T12:51:12;6.65;;;2.50;;
39104;SDS011;46464;51.154;13.812;2023-08-12T12:53:41;5.78;;;2.17;;
39104;SDS011;46464;51.154;13.812;2023-08-12T12:56:15;5.43;;;1.90;;
39104;SDS011;46464;51.154;13.812;2023-08-12T12:58:42;9.95;;;2.35;;
39104;SDS011;46464;51.154;13.812;2023-08-12T13:03:54;3.35;;;1.80;;
39104;SDS011;46464;51.154;13.812;2023-08-12T13:06:49;3.33;;;1.90;;
39104;SDS011;46464;51.154;13.812;2023-08-12T13:09:26;3.50;;;1.80;;
39104;SDS011;46464;51.154;13.812;2023-08-12T13:11:56;5.20;;;2.10;;
39104;SDS011;46464;51.154;13.812;2023-08-12T13:14:31;4.32;;;2.10;;
39104;SDS011;46464;51.154;13.812;2023-08-12T13:17:00;5.00;;;2.20;;
39104;SDS011;46464;51.154;13.812;2023-08-12T13:19:32;5.72;;;2.40;;
39104;SDS011;46464;51.154;13.812;2023-08-12T13:22:03;4.68;;;1.90;;
39104;SDS011;46464;51.154;13.812;2023-08-12T13:24:33;4.88;;;2.00;;
39104;SDS011;46464;51.154;13.812;2023-08-12T13:27:03;4.15;;;1.85;;
39104;SDS011;46464;51.154;13.812;2023-08-12T13:29:39;5.40;;;2.25;;
39104;SDS011;46464;51.154;13.812;2023-08-12T13:32:14;5.22;;;2.40;;
39104;SDS011;46464;51.154;13.812;2023-08-12T13:34:43;4.82;;;2.30;;
39104;SDS011;46464;51.154;13.812;2023-08-12T13:37:19;4.00;;;2.10;;
39104;SDS011;46464;51.154;13.812;2023-08-12T13:39:50;3.88;;;2.00;;
39104;SDS011;46464;51.154;13.812;2023-08-12T13:42:23;8.20;;;2.47;;
39104;SDS011;46464;51.154;13.812;2023-08-12T13:44:58;3.95;;;2.20;;
39104;SDS011;46464;51.154;13.812;2023-08-12T13:47:40;3.55;;;2.20;;
39104;SDS011;46464;51.154;13.812;2023-08-12T13:50:17;5.68;;;2.20;;
39104;SDS011;46464;51.154;13.812;2023-08-12T13:52:47;5.70;;;2.15;;
39104;SDS011;46464;51.154;13.812;2023-08-12T13:55:22;3.00;;;2.30;;
39104;SDS011;46464;51.154;13.812;2023-08-12T13:57:52;3.47;;;2.53;;
39104;SDS011;46464;51.154;13.812;2023-08-12T14:00:28;5.30;;;2.40;;
39104;SDS011;46464;51.154;13.812;2023-08-12T14:02:58;4.57;;;1.95;;
39104;SDS011;46464;51.154;13.812;2023-08-12T14:05:30;4.82;;;2.50;;
39104;SDS011;46464;51.154;13.812;2023-08-12T14:07:57;5.22;;;2.45;;
39104;SDS011;46464;51.154;13.812;2023-08-12T14:10:41;3.95;;;2.60;;
39104;SDS011;46464;51.154;13.812;2023-08-12T14:13:19;5.00;;;2.45;;
39104;SDS011;46464;51.154;13.812;2023-08-12T14:15:51;3.53;;;2.30;;
39104;SDS011;46464;51.154;13.812;2023-08-12T14:18:25;4.28;;;2.80;;
39104;SDS011;46464;51.154;13.812;2023-08-12T14:20:52;4.07;;;2.55;;
39104;SDS011;46464;51.154;13.812;2023-08-12T14:23:26;3.53;;;2.42;;
39104;SDS011;46464;51.154;13.812;2023-08-12T14:26:14;4.22;;;3.15;;
39104;SDS011;46464;51.154;13.812;2023-08-12T14:28:45;3.15;;;2.20;;
39104;SDS011;46464;51.154;13.812;2023-08-12T14:31:18;4.90;;;2.33;;
39104;SDS011;46464;51.154;13.812;2023-08-12T14:33:50;4.57;;;2.90;;
39104;SDS011;46464;51.154;13.812;2023-08-12T14:36:30;4.53;;;2.63;;
39104;SDS011;46464;51.154;13.812;2023-08-12T14:41:51;4.75;;;2.70;;
39104;SDS011;46464;51.154;13.812;2023-08-12T14:44:26;3.53;;;2.13;;
39104;SDS011;46464;51.154;13.812;2023-08-12T14:47:06;3.22;;;2.60;;
39104;SDS011;46464;51.154;13.812;2023-08-12T14:49:38;3.30;;;2.20;;
39104;SDS011;46464;51.154;13.812;2023-08-12T14:52:07;8.32;;;2.50;;
39104;SDS011;46464;51.154;13.812;2023-08-12T14:54:46;4.18;;;2.35;;
39104;SDS011;46464;51.154;13.812;2023-08-12T14:57:24;6.93;;;2.50;;
39104;SDS011;46464;51.154;13.812;2023-08-12T14:59:59;5.20;;;2.50;;
39104;SDS011;46464;51.154;13.812;2023-08-12T15:02:37;3.20;;;2.60;;
39104;SDS011;46464;51.154;13.812;2023-08-12T15:05:08;4.75;;;2.33;;
39104;SDS011;46464;51.154;13.812;2023-08-12T15:07:39;6.00;;;2.50;;
39104;SDS011;46464;51.154;13.812;2023-08-12T15:10:21;3.45;;;2.00;;
39104;SDS011;46464;51.154;13.812;2023-08-12T15:12:54;3.08;;;2.38;;
39104;SDS011;46464;51.154;13.812;2023-08-12T15:15:26;4.47;;;2.05;;
39104;SDS011;46464;51.154;13.812;2023-08-12T15:17:58;5.13;;;2.05;;
39104;SDS011;46464;51.154;13.812;2023-08-12T15:20:33;3.75;;;2.20;;
39104;SDS011;46464;51.154;13.812;2023-08-12T15:23:02;4.70;;;2.08;;
39104;SDS011;46464;51.154;13.812;2023-08-12T15:25:38;4.53;;;1.88;;
39104;SDS011;46464;51.154;13.812;2023-08-12T15:28:17;4.07;;;1.80;;
39104;SDS011;46464;51.154;13.812;2023-08-12T15:30:52;3.50;;;1.90;;
39104;SDS011;46464;51.154;13.812;2023-08-12T15:33:23;4.70;;;1.73;;
39104;SDS011;46464;51.154;13.812;2023-08-12T15:36:01;4.55;;;1.60;;
39104;SDS011;46464;51.154;13.812;2023-08-12T15:38:48;3.53;;;2.00;;
39104;SDS011;46464;51.154;13.812;2023-08-12T15:41:21;4.65;;;1.80;;
39104;SDS011;46464;51.154;13.812;2023-08-12T15:43:51;5.82;;;2.22;;